Date,TemperatureHighF,TemperatureAvgF,TemperatureLowF,DewpointHighF,DewpointAvgF,DewpointLowF,HumidityHigh,HumidityAvg,HumidityLow,PressureMaxIn,PressureMinIn,WindSpeedMaxMPH,WindSpeedAvgMPH,GustSpeedMaxMPH,PrecipitationSumIn
2013-1-1,38.7,32.8,29.5,37.9,32.2,29.0,98,98,93,30.44,30.30,3,0,3,0.00
2013-1-2,45.9,34.5,30.0,40.2,32.6,29.5,98,93,68,30.30,30.12,3,0,3,0.00
2013-1-3,46.0,34.6,28.8,41.9,32.9,28.3,98,94,70,30.15,30.00,7,0,7,0.12
2013-1-4,45.5,41.0,37.8,45.0,40.4,37.2,98,98,95,30.21,30.06,4,0,4,0.29
2013-1-5,42.8,41.5,40.3,42.3,40.9,39.8,98,98,97,30.12,29.94,3,0,4,23.06
2013-1-6,42.4,40.2,38.3,41.9,39.7,37.8,98,98,98,30.06,29.88,229,0,229,0.87
2013-1-7,42.1,38.9,36.1,41.6,38.4,35.6,98,98,98,30.03,29.71,172,0,172,1.16
2013-1-8,45.9,39.2,35.8,45.2,38.7,35.3,98,98,98,30.06,29.53,5,0,6,1.45
2013-1-9,46.6,41.5,37.0,45.7,40.8,36.5,98,97,84,29.82,29.53,4,0,6,26.58
2013-1-10,46.0,36.3,30.0,38.0,32.0,22.6,98,85,57,30.06,29.82,57,1,57,0.04
2013-1-11,43.3,31.6,27.3,24.0,20.1,17.1,74,63,41,30.27,30.06,6,1,229,0.00
2013-1-12,40.6,30.2,25.5,24.2,20.0,18.2,77,66,48,30.36,30.24,5,0,7,0.00
2013-1-13,28.8,28.1,27.9,22.9,22.5,22.2,80,79,78,30.39,30.36,1,0,2,0.00
2013-1-14,34.0,32.4,28.8,33.1,29.8,22.8,98,90,73,30.50,30.36,2,0,3,0.04
2013-1-15,39.7,35.6,33.3,35.7,33.2,31.4,98,91,79,30.62,30.47,2,0,3,0.00
2013-1-16,38.3,34.8,30.6,32.3,30.0,27.8,92,82,70,30.59,30.41,2,0,4,0.00
2013-1-17,48.4,34.4,29.1,37.5,31.0,27.5,98,88,60,30.44,30.18,3,0,3,0.00
2013-1-18,46.2,34.3,29.8,39.9,32.4,29.1,98,93,72,30.30,30.18,4,0,172,0.00
2013-1-19,45.9,35.1,30.0,40.2,33.6,29.3,98,94,76,30.33,30.24,4,0,4,0.00
2013-1-20,38.5,33.5,29.7,37.8,32.9,29.2,98,98,97,30.33,30.18,3,0,3,0.00
2013-1-21,35.1,30.7,26.8,34.5,30.2,26.3,98,98,98,30.21,30.03,3,0,3,0.00
2013-1-22,38.5,33.1,28.2,38.0,32.6,27.7,98,98,98,30.06,29.82,2,0,3,0.00
2013-1-23,42.8,39.3,36.0,42.3,38.8,35.5,98,98,97,29.97,29.71,4,0,4,0.79
2013-1-24,44.8,40.4,38.3,43.5,39.3,37.5,98,96,85,30.12,29.91,5,0,8,0.33
2013-1-25,55.9,43.7,39.6,48.1,40.5,37.6,98,89,64,29.97,29.79,4,0,229,0.16
2013-1-26,46.8,41.3,38.8,43.8,39.2,37.5,98,92,78,29.91,29.76,4,0,4,0.13
2013-1-27,40.8,39.0,37.6,40.3,38.5,37.1,98,98,98,29.94,29.82,1,0,1,1.62
2013-1-28,39.9,38.0,35.2,39.4,37.5,34.7,98,98,96,29.91,29.82,8,1,8,0.12
2013-1-29,41.9,39.1,36.7,40.7,38.5,36.2,98,98,95,30.21,29.91,4,0,5,0.13
2013-1-30,43.5,41.1,39.4,43.0,40.6,38.9,98,98,98,30.30,30.18,115,0,115,0.04
2013-1-31,45.9,43.1,40.6,45.3,42.6,40.1,98,98,98,30.27,30.18,2,0,2,0.37
2013-2-1,52.3,43.6,38.7,48.7,42.5,38.2,98,96,83,30.36,30.24,2,0,3,0.00
2013-2-2,46.4,38.1,33.4,43.6,37.3,32.9,98,97,84,30.36,30.12,115,1,115,2.28
2013-2-3,44.6,40.8,38.1,43.0,40.1,37.6,98,97,91,30.24,30.06,3,0,3,0.13
2013-2-4,45.1,43.2,40.6,44.6,42.4,40.1,98,97,93,30.09,29.74,6,0,6,0.08
2013-2-5,46.4,44.0,41.7,45.3,43.1,41.2,98,97,87,29.76,29.65,4,0,6,3.03
2013-2-6,46.2,42.8,40.8,44.5,41.9,37.7,98,97,74,29.91,29.65,5,0,7,0.45
2013-2-7,52.9,42.7,35.6,44.0,38.4,33.1,95,85,66,30.09,29.65,4,0,6,3.57
2013-2-8,46.4,38.4,32.2,37.0,34.5,31.1,97,86,66,30.24,30.09,4,0,4,0.00
2013-2-9,45.3,40.5,36.7,39.4,36.5,34.0,93,86,70,30.30,30.15,115,0,115,0.00
2013-2-10,49.5,39.4,32.2,38.7,34.9,30.9,97,85,58,30.30,30.21,6,0,6,3.57
2013-2-11,43.0,40.9,39.4,42.0,39.9,37.8,98,96,92,30.27,30.18,1,0,1,0.00
2013-2-12,46.2,43.1,40.6,45.2,42.6,40.1,98,98,97,30.30,30.09,115,0,115,0.08
2013-2-13,53.1,43.7,39.6,45.9,40.4,36.7,98,89,63,30.39,30.12,5,0,6,0.00
2013-2-14,46.2,42.8,40.5,44.9,41.2,37.7,98,94,85,30.50,30.36,3,0,4,0.04
2013-2-15,53.6,43.2,37.6,41.9,39.4,37.1,98,87,57,30.50,30.06,6,0,6,3.69
2013-2-16,54.7,44.2,36.7,48.4,40.2,34.6,98,87,50,30.09,29.94,7,0,7,3.85
2013-2-17,46.6,41.2,37.0,39.1,35.7,32.0,95,81,60,30.15,30.00,4,0,4,0.00
2013-2-18,42.3,39.5,38.1,40.7,37.0,34.7,97,91,84,30.03,29.68,6,0,6,0.17
2013-2-19,50.7,42.0,36.3,38.4,34.4,31.2,86,75,51,29.91,29.65,7,1,10,0.00
2013-2-20,39.2,37.5,35.1,38.0,35.1,31.0,98,91,78,29.94,29.88,3,0,4,4.23
2013-2-21,41.5,39.4,37.0,41.0,38.9,36.5,98,98,98,29.91,29.82,3,0,4,0.45
2013-2-22,46.8,39.4,36.0,44.1,38.3,35.1,98,96,72,29.91,29.47,6,1,8,1.79
2013-2-23,50.4,41.2,34.9,41.7,35.2,31.7,98,81,53,30.21,29.71,57,1,57,0.00
2013-2-24,40.5,39.5,38.1,39.9,38.4,34.6,98,96,81,30.24,29.76,6,0,6,1.16
2013-2-25,50.0,41.6,35.8,42.0,35.2,27.1,98,80,47,30.15,29.65,15,1,15,1.62
2013-2-26,43.5,38.9,35.4,39.3,36.1,31.2,97,90,79,30.24,30.06,4,0,4,2.03
2013-2-27,47.3,40.1,35.6,43.0,38.1,35.1,98,93,73,30.24,30.09,3,0,4,0.13
2013-2-28,43.2,40.0,36.1,42.5,38.7,34.8,98,95,86,30.21,30.09,6,0,8,1.08
2013-3-1,50.2,48.8,43.0,49.6,48.2,42.5,98,98,98,30.18,30.12,4,0,4,1.94
2013-3-2,50.0,46.0,38.8,49.5,44.8,35.3,98,96,85,30.15,29.88,13,1,13,0.87
2013-3-3,52.9,41.0,32.7,38.7,33.2,30.0,97,76,46,30.24,30.00,6,1,57,0.00
2013-3-4,53.1,41.2,32.5,35.8,31.0,24.0,91,69,47,30.21,29.88,6,1,8,6.09
2013-3-5,48.7,41.6,37.0,38.4,32.0,23.5,95,69,50,29.91,29.71,6,0,6,0.05
2013-3-6,47.8,42.7,38.7,42.1,39.3,37.7,98,88,71,29.79,29.53,3,0,4,0.08
2013-3-7,49.5,42.4,38.7,42.7,39.8,36.5,98,91,72,30.06,29.76,4,0,4,0.08
2013-3-8,53.8,42.2,34.3,40.4,36.6,33.1,97,82,54,30.18,30.00,9,1,9,6.30
2013-3-9,59.2,44.6,34.5,40.7,35.6,33.2,97,73,46,30.41,30.12,4,1,6,6.30
2013-3-10,47.5,43.9,41.4,42.9,38.9,33.9,94,83,68,30.39,30.30,3,0,4,0.00
2013-3-11,53.8,44.9,39.6,42.0,38.9,35.5,96,80,54,30.36,30.06,4,0,5,0.17
2013-3-12,50.5,45.5,39.7,50.0,44.9,38.8,98,98,94,30.06,29.88,4,0,4,9.00
2013-3-13,50.0,49.4,48.6,49.5,48.9,48.0,98,98,98,30.06,29.94,3,0,4,1.82
2013-3-14,50.4,47.8,34.2,49.8,47.2,0.0,98,98,98,30.06,29.88,5,0,6,1.20
2013-3-15,52.9,47.4,43.3,52.3,46.8,42.8,98,98,95,30.12,30.00,3,0,4,0.17
2013-3-16,49.8,44.7,39.0,49.3,42.0,32.1,98,91,57,30.00,29.71,10,1,13,0.16
2013-3-17,51.3,40.7,32.9,37.1,31.3,26.8,96,71,44,30.06,29.76,13,1,13,0.00
2013-3-18,51.6,42.4,36.1,39.8,32.1,26.3,98,70,42,30.18,29.91,15,1,15,0.25
2013-3-19,49.6,42.0,36.7,41.5,32.2,26.5,95,70,46,30.15,29.47,5,1,7,0.29
2013-3-20,59.4,45.4,37.2,49.6,41.1,32.6,98,87,49,29.82,29.17,14,2,14,0.83
2013-3-21,52.5,40.7,32.9,38.8,30.2,22.5,98,70,32,30.06,29.82,10,1,172,0.04
2013-3-22,50.2,39.5,33.6,34.2,30.0,25.3,84,70,43,30.30,30.06,9,1,10,0.00
2013-3-23,54.9,42.2,35.1,32.7,28.9,24.5,79,61,40,30.30,30.21,6,1,9,0.00
2013-3-24,60.6,44.7,36.9,33.1,28.7,26.0,74,55,32,30.24,30.06,4,1,6,0.00
2013-3-25,59.2,47.8,39.7,38.2,31.6,26.1,72,54,39,30.06,29.88,7,1,9,13.76
2013-3-26,59.4,48.1,39.2,38.3,34.4,30.5,79,60,45,29.94,29.88,7,1,7,0.00
2013-3-27,62.1,49.7,39.2,40.2,36.5,33.6,84,62,43,29.94,29.85,7,1,9,13.76
2013-3-28,64.6,53.0,45.1,42.6,38.6,35.0,75,59,42,30.06,29.91,8,1,8,0.00
2013-3-29,63.1,51.9,43.5,44.4,40.5,37.0,82,66,47,30.18,30.06,8,1,8,0.00
2013-3-30,64.4,52.1,41.5,44.5,40.4,36.6,87,66,45,30.21,30.00,7,1,8,0.00
2013-3-31,69.3,54.2,41.7,43.3,38.7,35.3,81,58,35,30.03,29.82,6,1,6,0.00
2013-4-1,69.6,54.5,44.8,47.0,41.7,37.9,79,63,43,30.03,29.85,5,1,6,0.00
2013-4-2,57.4,53.0,48.9,45.3,42.9,40.7,78,69,57,30.12,30.00,229,0,229,0.00
2013-4-3,62.1,52.3,44.6,44.1,41.1,38.8,82,66,49,30.12,29.91,8,1,8,13.76
2013-4-4,55.0,51.7,48.7,51.8,45.4,38.5,98,80,61,29.91,29.47,4,0,4,0.96
2013-4-5,54.1,50.6,48.0,52.7,49.9,0.0,98,97,94,29.76,29.53,4,0,5,0.78
2013-4-6,61.3,48.9,42.4,48.9,43.4,34.2,98,84,44,29.79,29.56,8,1,8,0.50
2013-4-7,50.7,45.7,41.9,44.2,42.0,39.2,97,87,71,29.76,29.47,3,0,4,16.04
2013-4-8,62.8,49.7,44.1,44.3,42.0,38.6,94,76,47,30.15,29.79,6,0,6,0.00
2013-4-9,50.5,47.2,45.1,47.1,44.0,40.3,98,89,76,30.24,30.06,3,0,4,0.17
2013-4-10,62.8,50.8,45.9,53.5,45.1,38.2,98,83,42,30.09,29.74,12,2,15,1.41
2013-4-11,57.4,48.6,42.3,45.7,37.1,30.0,95,66,41,30.18,30.06,14,2,14,17.62
2013-4-12,45.9,41.3,38.7,40.5,36.6,33.0,98,84,66,30.09,29.50,5,0,9,0.83
2013-4-13,56.3,42.4,34.2,42.0,35.3,29.7,92,77,51,29.88,29.53,10,1,57,0.00
2013-4-14,56.7,44.7,37.4,37.5,34.4,31.4,88,68,46,29.94,29.82,8,1,8,0.00
2013-4-15,57.6,47.3,41.4,44.5,37.9,33.4,88,71,42,30.09,29.82,8,1,8,18.49
2013-4-16,59.9,49.1,39.9,40.7,30.9,24.5,70,51,29,30.30,30.09,11,1,11,0.00
2013-4-17,64.2,51.0,41.7,41.0,34.4,27.6,76,54,38,30.36,30.27,6,1,6,0.00
2013-4-18,49.1,45.6,42.3,47.5,44.1,40.3,98,95,76,30.36,30.09,4,0,5,19.57
2013-4-19,59.7,49.5,42.8,52.8,46.9,42.3,98,91,69,30.09,29.94,229,1,229,0.45
2013-4-20,59.9,49.8,43.9,48.9,44.7,38.0,98,84,50,30.12,30.00,10,1,12,0.05
2013-4-21,55.4,45.9,40.6,46.4,39.6,31.9,96,80,48,30.30,30.06,8,1,10,20.23
2013-4-22,62.8,49.1,36.3,36.8,31.5,25.9,73,52,25,30.47,30.30,8,1,10,0.00
2013-4-23,63.0,51.7,41.2,38.3,34.3,29.0,75,53,38,30.36,30.18,8,1,9,20.23
2013-4-24,66.9,53.6,42.3,42.2,36.5,31.0,73,53,36,30.24,29.97,6,1,6,20.23
2013-4-25,68.7,55.6,43.0,46.0,39.8,35.0,77,56,42,30.06,29.94,6,1,8,0.00
2013-4-26,63.7,55.5,45.9,47.1,40.8,34.7,83,59,39,30.18,30.00,4,0,57,0.00
2013-4-27,53.4,50.7,46.8,51.5,45.5,38.4,97,83,57,30.09,30.00,4,0,5,0.29
2013-4-28,60.3,49.0,40.1,47.8,40.9,33.0,98,77,39,30.12,29.76,6,0,6,0.09
2013-4-29,58.5,48.2,40.3,44.6,33.0,26.0,96,59,37,30.00,29.76,17,2,20,0.00
2013-4-30,58.8,46.1,35.8,35.0,29.0,25.5,73,53,33,30.36,30.00,8,1,11,20.61
2013-5-1,63.0,50.8,38.8,40.2,31.0,24.9,59,47,35,30.53,30.33,6,1,8,20.61
2013-5-2,61.3,53.1,45.1,46.5,38.7,32.6,76,59,42,30.47,30.30,6,1,115,0.00
2013-5-3,69.1,55.7,43.3,47.7,43.2,38.6,86,64,45,30.36,30.15,6,1,7,0.00
2013-5-4,77.7,61.1,46.8,48.3,43.1,38.4,79,54,32,30.21,29.91,6,1,7,0.00
2013-5-5,85.6,67.4,52.5,49.6,43.1,36.5,67,43,29,29.94,29.68,6,1,6,0.00
2013-5-6,84.0,68.0,55.2,48.2,42.9,37.8,60,42,27,29.79,29.65,6,1,6,0.00
2013-5-7,78.3,63.8,52.7,52.7,48.6,44.0,79,59,41,29.85,29.71,6,1,6,20.61
2013-5-8,73.4,60.0,50.9,52.6,50.0,46.9,89,71,46,30.06,29.85,5,1,6,20.61
2013-5-9,75.7,61.8,49.5,53.5,50.8,47.8,95,70,46,30.12,30.00,8,1,8,0.00
2013-5-10,77.2,63.6,51.3,55.4,51.1,45.9,92,66,45,30.12,30.00,6,1,6,20.61
2013-5-11,74.7,62.9,56.5,56.8,51.8,45.2,96,69,46,30.06,29.88,6,0,8,20.81
2013-5-12,67.1,60.1,56.1,62.5,58.5,55.6,98,95,80,30.00,29.88,4,0,5,0.62
2013-5-13,63.3,55.0,49.6,58.2,52.4,44.7,98,91,74,30.06,29.79,9,0,9,21.68
2013-5-14,70.0,54.5,46.9,49.8,44.3,35.0,96,72,37,30.12,30.03,6,0,6,21.72
2013-5-15,70.9,57.1,49.1,49.9,45.0,40.7,90,66,39,30.03,29.88,7,1,8,0.00
2013-5-16,65.3,54.8,50.7,53.0,49.1,45.7,95,82,57,29.94,29.88,8,0,8,0.05
2013-5-19,68.9,57.1,50.2,52.0,47.4,42.4,88,72,46,30.30,30.15,8,0,8,22.02
2013-5-20,68.5,57.3,47.7,50.2,46.2,43.3,87,68,48,30.27,29.82,6,0,6,0.00
2013-5-21,53.2,49.6,47.7,50.3,47.9,44.7,98,94,74,29.82,29.68,6,0,6,0.62
2013-5-22,62.2,53.0,45.7,52.8,46.3,40.9,98,80,51,29.85,29.74,6,0,6,0.20
2013-5-23,64.0,53.3,43.0,48.4,44.1,41.1,98,74,49,29.91,29.82,6,0,7,22.97
2013-5-24,69.8,55.9,45.9,46.6,42.8,38.8,87,64,41,29.94,29.88,8,0,8,22.97
2013-5-25,62.2,53.2,47.3,53.8,46.9,40.1,93,79,66,29.97,29.88,3,0,3,0.16
2013-5-26,61.0,54.8,48.9,50.7,47.2,42.4,88,76,62,29.94,29.85,3,0,4,0.00
2013-5-27,62.4,56.1,52.2,55.4,51.5,47.1,98,85,65,29.88,29.59,5,0,5,0.30
2013-5-28,56.8,53.6,51.6,55.7,52.9,51.1,98,97,94,29.82,29.65,3,0,3,1.16
2013-5-29,57.0,53.2,50.0,54.1,51.5,49.5,98,94,83,29.82,29.59,6,0,6,0.20
2013-5-30,59.4,53.1,48.6,52.5,49.8,44.6,98,89,63,30.15,29.82,4,0,4,0.04
2013-5-31,70.5,57.1,48.9,53.5,47.4,40.0,98,73,43,30.27,30.12,6,1,7,0.00
2013-6-1,68.7,57.7,51.6,53.0,47.7,43.2,87,71,43,30.15,29.97,5,1,6,0.00
2013-6-2,71.2,58.6,48.2,51.6,48.5,45.5,92,71,46,30.00,29.94,8,1,8,0.00
2013-6-3,73.2,60.4,50.0,51.5,48.8,45.3,91,68,43,30.03,29.94,9,1,9,0.00
2013-6-4,81.0,64.3,50.9,53.8,49.3,42.7,92,61,36,30.06,29.94,6,1,8,0.00
2013-6-5,75.2,64.8,57.2,56.4,51.0,41.8,84,62,46,30.00,29.94,7,1,458,0.00
2013-6-6,80.4,65.2,52.7,56.7,50.9,45.3,90,63,40,29.97,29.88,6,1,6,24.83
2013-6-7,71.1,60.8,54.9,54.4,50.6,44.7,92,70,52,30.03,29.88,4,0,4,0.04
2013-6-8,73.2,58.5,53.1,52.0,49.4,47.4,89,73,44,30.09,30.00,7,0,8,0.00
2013-6-9,72.7,59.5,51.4,54.9,48.1,41.2,93,69,39,30.03,29.94,8,1,8,24.87
2013-6-10,72.9,59.2,34.2,51.4,45.5,0.0,84,62,40,29.94,29.76,8,1,8,0.00
2013-6-11,66.0,57.6,53.1,48.7,46.3,42.7,80,67,47,29.97,29.79,6,0,6,0.00
2013-6-12,68.2,55.7,50.0,55.8,49.4,44.1,97,81,48,30.06,29.97,6,0,6,0.21
2013-6-13,72.3,59.4,47.7,52.8,47.0,42.7,90,66,41,30.09,30.03,7,1,7,0.00
2013-6-14,66.6,57.8,53.2,54.0,50.7,48.5,94,78,58,30.15,30.00,6,0,6,0.00
2013-6-15,73.6,62.0,49.6,57.6,51.8,47.4,93,71,47,30.00,29.82,6,1,6,0.00
2013-6-16,82.4,67.0,55.8,56.7,51.6,48.6,81,60,38,30.00,29.88,6,1,6,0.00
2013-6-17,81.9,67.7,59.9,54.9,51.1,46.3,73,57,34,30.00,29.79,6,1,6,0.00
2013-6-18,78.6,62.7,56.1,56.2,51.6,45.5,94,70,39,29.88,29.82,8,1,8,0.04
2013-6-19,67.6,60.0,53.2,56.0,51.4,45.5,92,74,54,29.88,29.76,5,0,6,0.00
2013-6-20,59.2,56.9,54.5,56.9,55.1,53.9,98,94,87,29.97,29.76,7,1,11,25.50
2013-6-21,65.7,59.0,52.9,56.6,54.6,52.3,98,86,69,30.09,29.97,57,0,859,0.04
2013-6-22,72.1,63.5,57.4,56.7,54.3,51.0,92,73,50,30.03,29.76,4,0,115,0.00
2013-6-23,69.6,63.0,54.7,61.8,56.1,50.3,95,79,64,29.79,29.53,4,0,4,0.04
2013-6-24,64.6,59.9,56.8,61.7,58.4,55.4,98,95,84,29.62,29.47,115,0,115,0.83
2013-6-25,73.2,61.1,56.3,61.8,56.7,54.5,98,86,59,29.74,29.56,6,0,115,0.08
2013-6-26,68.2,60.8,56.8,62.2,58.2,54.0,98,91,76,30.00,29.71,3,0,57,26.70
2013-6-27,66.6,61.8,58.3,64.3,60.4,56.9,98,95,90,30.15,29.94,3,0,3,0.17
2013-6-28,71.1,65.9,59.2,64.4,61.9,58.3,98,87,75,30.15,29.94,4,0,4,26.87
2013-6-29,87.6,72.1,62.6,65.9,62.5,59.8,93,74,46,30.03,29.88,115,1,172,26.87
2013-6-30,89.6,73.9,61.9,64.5,60.7,53.9,92,66,40,29.94,29.76,8,1,8,0.00
2013-7-1,92.1,75.6,63.7,63.6,59.7,53.2,81,59,36,29.91,29.79,6,1,8,0.00
2013-7-2,85.1,72.2,63.3,62.5,58.4,54.1,82,63,46,29.97,29.88,5,1,6,0.00
2013-7-3,80.6,66.8,57.9,58.3,53.7,48.2,93,65,36,30.06,29.94,6,1,8,0.00
2013-7-4,61.2,56.9,54.0,53.2,50.0,47.6,87,78,63,30.00,29.94,1,0,2,0.00
2013-7-5,59.4,59.3,59.2,53.9,53.8,53.4,82,82,82,29.91,29.88,1,0,1,0.00
2013-7-6,78.4,65.5,55.6,58.2,54.8,51.0,86,70,47,29.91,29.71,8,1,8,0.00
2013-7-7,78.8,66.5,58.8,59.8,56.0,51.2,89,71,46,29.88,29.76,6,1,7,26.87
2013-7-8,79.2,66.6,56.5,60.9,55.6,51.4,89,69,48,30.00,29.82,6,1,6,0.00
2013-7-9,86.9,70.1,58.1,61.3,57.4,54.9,92,67,40,30.06,29.88,6,1,6,0.00
2013-7-10,80.6,66.4,57.2,60.3,53.2,43.1,92,65,43,29.94,29.82,6,1,6,0.00
2013-7-11,79.2,66.7,55.9,53.3,49.0,43.8,78,55,36,29.97,29.82,7,0,7,26.87
2013-7-12,77.9,70.5,66.6,53.6,47.7,44.5,51,44,41,29.97,29.91,0,0,0,26.87
2013-7-13,78.8,73.2,69.6,54.6,51.3,48.3,49,46,42,30.09,30.00,0,0,0,0.00
2013-7-14,79.5,74.8,72.5,57.6,53.5,50.6,58,48,42,30.06,29.91,0,0,0,0.00
2013-7-15,81.7,74.9,70.5,55.2,53.1,49.9,50,47,39,30.00,29.82,0,0,0,0.00
2013-7-16,82.9,76.6,72.0,56.7,53.6,49.6,52,45,38,29.88,29.71,0,0,0,0.00
2013-7-17,84.6,78.6,75.6,58.7,55.3,53.3,49,45,41,30.12,29.76,0,0,0,0.00
2013-7-18,81.7,76.5,72.3,58.1,55.2,52.8,55,48,43,30.15,30.00,0,0,0,0.00
2013-7-19,82.0,76.1,72.1,60.7,57.2,54.4,59,52,46,30.06,29.94,0,0,0,0.00
2013-7-20,81.9,75.4,70.9,60.4,56.8,54.6,59,53,46,29.97,29.82,0,0,0,0.00
2013-7-21,79.5,73.6,69.6,60.2,55.9,52.6,60,54,49,29.88,29.82,0,0,0,0.00
2013-7-22,79.9,72.0,62.4,60.7,56.9,54.4,81,60,49,29.94,29.82,8,1,8,0.04
2013-7-23,83.7,68.9,57.9,59.9,55.6,49.2,91,66,40,30.00,29.88,8,1,9,0.00
2013-7-24,83.1,69.6,58.1,58.5,54.7,51.2,89,62,40,29.97,29.88,8,1,8,0.04
2013-7-25,83.5,68.5,56.5,59.8,54.4,51.1,86,63,39,30.00,29.91,10,1,10,0.00
2013-7-26,78.8,66.9,57.0,58.8,54.2,48.8,84,66,38,30.06,29.94,8,1,8,0.12
2013-7-27,76.6,65.1,56.1,56.9,52.5,47.5,91,66,42,30.06,29.88,7,1,8,0.16
2013-7-28,79.9,65.6,55.2,55.8,52.1,48.8,84,64,37,29.94,29.82,8,1,10,0.00
2013-7-29,79.2,66.6,56.7,57.8,55.3,52.9,92,69,44,29.94,29.82,7,1,9,0.00
2013-7-30,81.7,68.5,58.5,59.2,55.8,53.5,89,66,41,30.03,29.88,7,1,8,0.00
2013-7-31,80.1,68.5,59.0,59.8,56.9,54.7,92,68,45,30.03,29.88,7,1,8,0.00
2013-8-1,76.5,66.6,60.1,60.7,57.5,54.3,90,74,52,29.94,29.88,6,1,6,0.00
2013-8-2,64.8,60.2,58.8,59.8,58.2,54.4,96,93,88,98.27,29.94,4,0,4,0.21
2013-8-3,71.1,64.1,58.8,61.8,58.9,57.0,98,84,64,30.06,29.94,4,0,6,0.00
2013-8-4,80.6,67.4,57.9,62.9,59.4,57.4,98,78,48,30.00,29.82,8,1,10,0.00
2013-8-5,84.0,69.4,58.3,64.6,58.0,51.1,97,70,38,29.94,29.82,7,1,7,0.00
2013-8-6,84.0,69.4,57.6,59.2,55.6,50.8,92,64,39,29.94,29.82,6,1,8,0.00
2013-8-7,84.9,70.1,58.6,59.1,55.3,50.2,89,62,40,29.94,29.82,7,1,8,0.37
2013-8-8,84.0,69.8,59.0,60.3,57.3,54.9,90,67,43,29.94,29.82,6,1,8,0.37
2013-8-9,84.4,69.7,58.8,63.8,59.4,55.7,94,73,44,29.88,29.71,8,1,8,0.00
2013-8-10,83.1,70.6,62.6,63.5,59.6,57.1,90,70,45,29.91,29.76,6,1,9,0.00
2013-8-11,76.3,66.5,62.1,61.6,56.4,51.6,89,70,53,30.00,29.88,8,1,8,0.37
2013-8-12,82.8,67.7,60.6,59.1,56.7,54.3,84,69,42,30.00,29.88,6,1,8,0.00
2013-8-13,80.4,68.0,59.0,59.3,54.9,49.6,88,66,42,30.03,29.82,8,1,9,0.37
2013-8-14,78.8,68.0,57.7,64.7,55.9,49.1,81,66,45,29.88,29.82,4,0,6,0.00
2013-8-15,69.3,66.5,63.0,64.9,62.9,60.0,95,88,79,29.94,29.82,3,0,5,0.00
2013-8-16,80.6,69.1,61.7,63.9,60.3,56.4,91,75,48,29.94,29.85,4,0,7,0.00
2013-8-17,74.7,68.4,62.8,63.3,59.6,56.7,91,74,56,30.00,29.88,6,0,6,0.00
2013-8-18,71.8,64.5,60.1,60.3,57.5,0.0,90,79,62,30.06,29.94,3,0,57,0.00
2013-8-19,77.0,65.9,60.1,56.9,54.6,50.6,88,69,44,30.03,29.94,57,1,172,0.00
2013-8-20,77.4,64.2,55.8,56.0,52.9,47.0,93,69,41,30.09,30.00,57,1,57,0.00
2013-8-21,79.9,65.7,53.8,56.6,52.3,47.1,85,64,41,30.03,29.82,7,1,8,0.00
2013-8-22,85.8,69.0,56.5,55.8,53.0,49.2,87,60,33,29.88,29.71,6,1,6,0.37
2013-8-23,80.1,67.5,60.1,58.5,52.9,48.8,92,60,44,29.79,29.71,5,1,8,0.41
2013-8-24,76.6,64.5,59.0,62.2,57.1,50.7,97,79,45,29.82,29.76,8,0,8,0.04
2013-8-25,78.6,65.9,55.9,55.3,52.2,47.9,89,63,41,29.88,29.76,7,1,8,0.45
2013-8-26,75.7,66.0,59.2,60.9,54.4,50.8,87,67,48,29.88,29.74,7,0,7,0.00
2013-8-27,74.8,66.4,59.9,60.7,56.9,53.8,95,73,50,29.88,29.71,6,0,57,0.21
2013-8-28,74.8,65.5,60.4,67.0,62.1,59.2,98,89,63,29.82,29.71,5,0,6,1.07
2013-8-29,67.3,64.4,60.3,66.7,63.7,59.4,98,98,91,29.85,29.76,11,0,11,2.90
2013-8-30,69.8,61.9,57.2,65.6,60.2,56.1,98,94,78,30.09,29.85,115,1,115,3.07
2013-8-31,76.6,64.0,54.7,58.9,56.2,53.5,96,78,47,30.03,29.74,8,1,8,0.00
2013-9-1,81.9,66.6,56.3,61.0,57.4,55.0,98,75,43,29.82,29.71,6,1,7,0.00
2013-9-2,81.0,66.5,60.1,66.1,60.5,57.8,97,82,51,29.88,29.76,6,0,6,3.11
2013-9-3,70.7,62.9,59.2,64.9,60.6,57.8,98,93,77,29.94,29.82,6,0,6,3.27
2013-9-4,72.9,63.3,56.8,63.2,59.4,56.3,98,88,64,29.97,29.88,6,0,7,3.27
2013-9-5,66.9,61.8,57.7,63.3,60.4,57.2,98,95,81,29.97,29.82,6,0,6,0.25
2013-9-6,72.0,64.2,59.4,64.6,61.5,58.8,98,92,74,30.00,29.79,4,0,4,3.52
2013-9-7,75.4,65.3,60.1,65.3,61.4,59.2,98,88,61,30.03,29.94,8,1,10,3.56
2013-9-8,75.9,65.0,57.6,64.4,60.7,57.0,98,87,64,30.03,29.94,6,0,6,3.56
2013-9-9,75.9,65.0,57.2,62.5,59.7,56.6,98,84,54,30.00,29.88,8,1,8,3.56
2013-9-10,81.3,66.2,56.5,62.6,59.1,55.9,98,80,46,29.91,29.82,6,1,6,0.00
2013-9-11,88.3,70.7,57.9,61.7,58.0,55.1,94,68,37,29.88,29.79,6,1,6,0.00
2013-9-12,86.2,70.8,61.3,62.1,58.4,54.9,87,67,40,29.91,29.76,5,1,7,0.00
2013-9-13,77.9,65.7,58.6,63.1,59.1,56.9,96,81,53,29.88,29.76,6,1,6,27.90
2013-9-14,64.2,61.1,58.6,61.5,59.6,56.9,98,95,90,29.82,29.65,5,0,5,27.90
2013-9-15,64.4,60.7,58.3,62.5,59.7,57.7,98,97,92,29.71,29.59,6,0,6,0.25
2013-9-16,64.0,59.5,55.9,63.5,59.0,55.4,98,98,96,29.82,29.65,6,0,6,1.29
2013-9-17,69.4,59.3,53.8,60.4,55.4,52.2,98,88,58,29.82,29.74,7,0,8,0.00
2013-9-18,71.8,59.7,53.4,56.0,51.8,46.5,98,78,44,30.00,29.82,6,1,8,0.00
2013-9-19,83.1,63.9,34.2,52.4,48.6,0.0,79,60,29,30.00,29.65,6,0,115,29.44
2013-9-20,70.2,59.9,52.3,57.1,52.3,47.0,98,78,49,29.68,29.47,5,0,6,29.69
2013-9-21,69.6,59.8,55.9,59.0,55.7,53.2,98,87,60,29.65,29.53,172,0,229,0.21
2013-9-22,56.8,54.9,53.2,56.3,54.2,52.7,98,98,94,29.59,29.44,5,0,6,1.03
2013-9-23,67.1,55.7,52.2,57.6,52.8,45.6,98,91,50,29.82,29.59,4,0,5,0.21
2013-9-25,67.8,57.5,47.7,48.8,45.9,43.1,92,67,47,29.94,29.82,6,1,7,31.14
2013-9-26,67.1,53.4,46.0,49.1,44.8,40.8,89,74,43,30.06,29.94,7,1,9,0.00
2013-9-27,53.6,51.2,48.7,52.2,49.3,44.8,98,93,79,30.03,29.71,3,0,4,0.29
2013-9-28,55.4,52.4,50.9,54.8,51.9,50.4,98,98,97,29.74,29.17,115,1,115,32.84
2013-9-29,53.1,51.2,48.2,52.5,50.7,47.4,98,98,93,29.41,29.03,7,1,7,0.95
2013-9-30,54.9,50.2,48.2,54.3,49.1,45.9,98,96,89,29.79,29.17,6,0,6,0.30
2013-10-1,56.8,48.7,45.3,53.3,47.3,44.6,98,95,73,30.00,29.76,4,0,6,0.49
2013-10-2,48.7,47.0,44.1,48.2,46.5,0.0,98,98,98,30.09,29.94,3,0,4,35.20
2013-10-3,60.1,48.1,40.6,50.1,44.4,40.1,98,88,57,30.39,30.09,6,1,6,35.24
2013-10-4,58.8,50.7,43.0,50.6,46.6,42.5,98,87,64,30.39,30.24,4,0,4,0.00
2013-10-5,65.5,56.1,51.3,53.9,50.7,45.7,96,82,64,30.30,30.06,6,1,7,0.00
2013-10-6,77.5,58.8,49.3,57.9,50.2,42.6,98,77,35,30.06,29.71,6,0,6,35.24
2013-10-7,60.8,53.5,51.1,55.5,51.4,45.9,98,93,65,29.85,29.71,4,0,4,0.29
2013-10-8,62.4,50.8,43.9,50.7,44.6,39.7,98,82,45,30.03,29.82,10,1,10,0.00
2013-10-9,64.9,50.7,42.4,45.3,41.7,38.0,87,73,45,30.06,29.85,4,0,4,0.00
2013-10-10,61.5,51.2,45.5,47.0,43.7,41.4,88,77,53,29.97,29.82,8,1,12,0.00
2013-10-11,54.9,48.7,42.3,46.6,43.2,39.4,94,82,65,30.06,29.97,5,0,6,0.00
2013-10-12,59.2,49.5,43.5,47.6,44.1,41.1,94,83,55,30.15,30.00,7,1,8,0.00
2013-10-13,61.9,48.8,41.5,45.8,42.1,38.8,95,79,51,30.30,30.12,6,1,7,0.00
2013-10-14,62.1,48.6,40.6,46.8,43.2,39.4,97,83,53,30.33,30.30,6,1,7,0.00
2013-10-15,60.3,49.1,43.5,48.8,45.5,42.5,98,88,62,30.33,30.09,6,0,6,0.00
2013-10-16,63.5,50.2,43.0,51.3,46.3,42.5,98,88,56,30.12,30.06,6,1,8,0.00
2013-10-17,59.9,47.6,41.7,51.0,45.2,41.2,98,92,67,30.21,30.12,6,1,6,0.00
2013-10-18,53.6,45.3,39.9,48.8,44.1,39.4,98,96,82,30.18,30.06,4,0,5,0.00
2013-10-19,49.6,45.9,40.6,48.7,45.2,40.1,98,97,95,30.15,30.06,4,0,4,0.00
2013-10-20,51.8,48.3,34.2,49.6,47.0,0.0,98,95,90,30.15,30.06,4,0,4,0.00
2013-10-21,56.7,48.8,46.0,52.8,47.8,45.5,98,96,83,30.12,30.03,4,0,4,0.00
2013-10-31,50.2,49.6,48.6,49.6,49.0,48.0,98,98,97,30.15,30.06,1,0,1,0.21
2013-11-1,52.9,50.3,49.3,51.3,49.6,48.7,98,97,94,30.18,29.74,4,0,5,0.41
2013-11-2,49.6,46.1,39.6,49.1,45.6,39.0,98,98,98,29.76,29.35,5,0,6,1.62
2013-11-3,52.9,40.2,35.4,40.7,34.8,28.0,98,83,48,30.06,29.76,6,1,8,0.00
2013-11-4,47.7,40.5,33.1,35.1,31.4,28.5,88,71,53,30.12,30.00,6,0,6,0.00
2013-11-5,43.3,40.9,38.8,42.3,38.6,29.2,98,92,59,30.18,29.94,4,0,5,0.08
2013-11-6,50.2,45.2,40.8,43.4,40.9,38.8,98,86,72,30.27,29.91,6,0,172,0.17
2013-11-7,50.5,47.3,43.7,50.0,46.7,42.6,98,98,96,29.91,29.56,5,0,5,0.83
2013-11-8,54.9,46.3,41.4,50.4,43.4,40.7,98,90,64,30.06,29.82,3,0,6,0.04
2013-11-9,49.6,46.1,44.1,47.2,43.7,41.1,98,91,84,30.09,30.00,6,1,6,0.04
2013-11-10,50.5,45.4,41.5,44.3,41.9,39.4,93,88,74,30.12,30.06,3,0,4,0.00
2013-11-11,58.3,48.5,44.1,45.5,41.9,37.1,92,79,48,30.12,29.91,4,0,6,0.00
2013-11-12,54.1,51.0,47.5,52.8,49.6,45.3,98,95,86,30.21,29.88,6,0,6,0.33
2013-11-13,57.9,51.2,47.5,53.7,48.6,47.0,98,92,73,30.30,30.18,4,0,4,39.60
2013-11-14,56.3,47.2,39.0,50.5,44.3,37.6,98,90,61,30.24,29.94,10,0,10,0.00
2013-11-15,43.5,41.3,36.9,43.0,40.7,36.3,98,98,96,29.94,29.17,6,0,6,41.09
2013-11-16,44.4,39.2,34.5,43.9,38.5,34.0,98,97,93,29.62,29.17,4,0,4,0.00
2013-11-17,48.2,42.4,36.0,45.1,41.0,34.4,98,95,87,29.79,29.62,6,0,229,41.17
2013-11-18,45.7,43.5,41.5,45.2,42.8,41.0,98,98,93,29.79,29.47,5,0,6,0.54
2013-11-19,46.4,38.8,30.2,41.6,31.2,0.0,98,77,39,30.03,29.47,14,1,15,0.00
2013-11-20,43.2,34.0,28.8,28.8,25.3,22.7,91,72,48,30.47,30.03,9,1,9,0.00
2013-11-21,44.4,33.1,27.7,29.8,25.5,22.8,89,75,50,30.62,30.41,5,0,7,0.00
2013-11-22,48.2,35.5,28.9,32.3,28.8,25.7,90,78,50,30.59,30.39,172,0,172,41.71
2013-11-23,49.3,37.6,31.5,37.5,33.1,29.1,96,85,59,30.41,30.12,4,0,5,0.00
2013-11-24,50.5,40.0,33.8,39.8,36.1,0.0,97,86,63,30.18,30.09,4,0,4,41.71
2013-11-25,55.8,42.9,36.7,41.3,37.1,32.8,95,81,51,30.24,30.18,5,0,6,41.71
2013-11-26,52.3,42.3,35.1,39.7,35.6,30.4,89,78,52,30.21,30.00,4,0,4,0.00
2013-11-27,52.2,46.4,41.2,42.3,39.7,37.3,92,78,59,30.03,29.88,4,0,4,0.00
2013-11-28,52.5,45.6,39.6,46.7,42.8,38.5,98,90,74,30.12,29.94,3,0,3,0.00
2013-11-29,47.8,46.9,45.9,46.7,45.4,43.5,98,95,86,30.24,30.06,2,0,4,0.29
2013-11-30,46.2,44.7,42.8,45.7,44.2,42.3,98,98,98,30.24,29.94,3,0,4,0.91
2013-12-1,56.3,46.5,39.2,54.2,45.5,34.2,98,96,82,29.97,29.59,13,0,13,0.79
2013-12-2,47.8,38.1,30.4,34.8,31.0,26.6,93,77,50,30.06,29.62,13,1,57,43.74
2013-12-3,44.1,32.2,27.5,28.1,24.6,21.2,90,75,43,30.30,30.06,6,0,7,0.00
2013-12-4,39.7,29.4,25.2,25.7,20.7,16.2,89,71,44,30.30,30.24,4,0,4,43.74
2013-12-5,37.9,28.9,24.4,20.5,16.7,11.9,77,61,42,30.27,30.12,3,0,57,43.74
2013-12-6,37.9,25.6,20.1,15.8,1.3,-19.9,77,44,10,30.30,30.12,11,1,11,0.00
2013-12-7,33.3,22.7,16.3,8.6,3.8,-3.2,56,44,31,30.36,30.24,5,0,6,0.00
2013-12-8,35.4,26.7,21.9,15.7,11.8,8.6,64,53,42,30.47,30.30,5,0,6,0.00
2013-12-9,30.9,29.1,27.0,28.7,22.9,14.9,92,78,60,30.47,30.39,2,0,2,0.00
2013-12-10,34.2,32.6,30.6,33.2,31.3,28.5,97,95,92,30.41,30.36,1,0,3,0.00
2013-12-11,39.9,35.7,33.6,35.9,33.7,0.0,97,92,84,30.36,30.06,4,0,6,0.08
2013-12-12,42.3,37.5,33.6,38.9,36.1,32.5,98,95,76,30.09,29.94,5,0,5,0.38
2013-12-13,43.5,41.3,39.0,43.0,40.8,38.3,98,98,98,30.33,30.03,3,0,4,0.16
2013-12-14,45.9,44.1,42.3,45.3,43.5,41.7,98,98,97,30.33,30.21,3,0,3,0.04
2013-12-15,51.3,45.0,39.4,50.4,44.4,38.9,98,98,95,30.33,30.18,4,0,4,0.17
2013-12-16,46.0,41.0,36.9,45.3,40.3,36.3,98,97,92,30.39,30.18,4,0,6,0.00
2013-12-17,43.2,40.7,36.9,42.4,40.1,36.3,98,98,96,30.18,29.97,3,0,3,0.08
2013-12-18,48.0,39.8,33.3,41.9,33.5,24.5,98,80,50,30.18,29.88,11,1,13,0.00
2013-12-19,36.7,33.4,30.7,28.8,24.2,21.8,87,69,59,30.27,30.12,6,0,7,0.00
2013-12-20,34.2,32.8,31.5,33.1,31.4,28.6,98,95,87,30.12,29.65,4,0,4,44.65
2013-12-21,39.2,35.7,33.1,38.2,34.9,0.0,98,97,93,30.12,29.79,1,0,2,0.50
2013-12-22,42.1,39.0,35.8,41.6,38.4,35.3,98,98,98,30.21,30.06,4,0,4,0.62
2013-12-23,51.8,42.8,35.4,48.3,41.0,34.3,98,94,69,30.39,29.94,10,1,14,0.54
2013-12-24,45.1,39.2,35.8,41.8,37.5,34.0,98,94,83,30.53,30.39,2,0,4,46.31
2013-12-25,41.9,38.6,33.8,38.8,36.4,32.2,97,92,80,30.44,30.30,4,0,4,46.31
2013-12-26,48.2,42.8,39.4,47.1,42.1,38.6,98,97,94,30.33,30.12,3,0,3,0.25
2013-12-27,45.1,41.8,39.4,44.6,41.2,38.9,98,98,98,30.27,29.94,115,1,115,0.29
2013-12-28,45.9,41.8,38.7,44.8,41.1,38.0,98,97,93,30.44,30.27,172,1,172,0.00
2013-12-29,42.4,40.7,38.5,41.7,40.2,38.0,98,98,98,30.39,30.24,2,0,2,46.97
2013-12-30,46.2,43.3,40.5,45.0,42.6,39.9,98,97,94,30.24,30.00,4,0,4,0.00
2013-12-31,46.0,44.0,42.4,45.5,43.4,41.9,98,98,98,30.30,30.06,1,0,1,0.09
2014-1-1,45.9,42.7,40.3,44.4,41.8,39.6,98,96,89,30.36,30.15,4,0,115,0.04
2014-1-2,44.1,42.5,37.9,43.5,42.0,37.0,98,98,93,30.15,29.71,8,1,13,1.45